LCLK/LCA METAR and TAF weather

Enter ICAO airport designator
Station Type Date Time Source
LCLK METAR 2019/11/15 05:30 UTC NOAA

LCLK 150530Z 36006KT 9999 FEW030TCU 22/19 Q1013 NOSIG


Station Type Date Time Source
LCLK Decoded METAR 2019/11/15 05:30 UTC NOAA

Larnaca Airport, Cyprus (LCLK) 34-53N 033-38E 2M
Nov 15, 2019 - 12:30 AM EST / 2019.11.15 0530 UTC
Wind: from the N (360 degrees) at 7 MPH (6 KT):0
Visibility: greater than 7 mile(s):0
Sky conditions: mostly clear
Weather: Towering cumulus clouds observed
Temperature: 71 F (22 C)
Dew Point: 66 F (19 C)
Relative Humidity: 83%
Pressure (altimeter): 29.91 in. Hg (1013 hPa)
ob: LCLK 150530Z 36006KT 9999 FEW030TCU 22/19 Q1013 NOSIG
cycle: 5

Station Type Date Time Source
LCLK TAF 2019/11/15 06:30 UTC NOAA

TAF LCLK 150530Z 1506/1606 06011KT 9999 SCT025 PROB40
TEMPO 1506/1606 5000 SHRA DU PROB30
TEMPO 1506/1606 VRB25G35KT 1500 TSRA BKN022CB
BECMG 1510/1513 16009KT
BECMG 1518/1522 02015KT

Example: see airport list